createdAt,value
2023-09-08T00:00:27.387Z,62.60
2023-09-08T00:02:01.065Z,62.80
2023-09-08T00:03:33.623Z,62.90
2023-09-08T00:05:08.065Z,63.40
2023-09-08T00:06:40.626Z,62.90
2023-09-08T00:08:14.028Z,62.90
2023-09-08T00:09:47.062Z,62.70
2023-09-08T00:11:21.974Z,63.00
2023-09-08T00:12:54.247Z,63.90
2023-09-08T00:14:27.727Z,63.50
2023-09-08T00:16:01.365Z,63.00
2023-09-08T00:17:33.877Z,63.00
2023-09-08T00:19:07.479Z,62.60
2023-09-08T00:20:40.032Z,63.30
2023-09-08T00:22:14.223Z,63.30
2023-09-08T00:23:46.685Z,63.10
2023-09-08T00:25:20.213Z,63.30
2023-09-08T00:26:55.178Z,63.20
2023-09-08T00:28:27.777Z,62.80
2023-09-08T00:30:02.946Z,62.80
2023-09-08T00:31:36.782Z,62.80
2023-09-08T00:33:10.507Z,62.80
2023-09-08T00:34:43.367Z,63.30
2023-09-08T00:36:17.487Z,63.10
2023-09-08T00:37:51.051Z,62.80
2023-09-08T00:39:23.752Z,62.60
2023-09-08T00:40:57.404Z,62.60
2023-09-08T00:42:32.249Z,62.90
2023-09-08T00:44:05.663Z,62.80
2023-09-08T00:45:44.180Z,63.90
2023-09-08T00:47:17.605Z,63.60
2023-09-08T00:48:51.287Z,63.50
2023-09-08T00:50:23.961Z,63.80
2023-09-08T00:51:58.153Z,63.90
2023-09-08T00:53:31.685Z,64.10
2023-09-08T00:55:06.185Z,63.30
2023-09-08T00:56:40.047Z,64.60
2023-09-08T00:58:16.419Z,64.60
2023-09-08T00:59:49.197Z,64.00
2023-09-08T01:01:22.790Z,63.70
2023-09-08T01:02:55.559Z,63.50
2023-09-08T01:04:29.647Z,63.70
2023-09-08T01:06:03.260Z,64.00
2023-09-08T01:07:37.580Z,64.00
2023-09-08T01:09:14.492Z,64.20
2023-09-08T01:10:47.426Z,64.10
2023-09-08T01:12:21.829Z,63.90
2023-09-08T01:13:55.655Z,64.00
2023-09-08T01:15:29.445Z,64.00
2023-09-08T01:17:02.201Z,64.00
2023-09-08T01:18:37.362Z,62.90
2023-09-08T01:20:22.686Z,63.80
2023-09-08T01:22:31.301Z,64.60
2023-09-08T01:24:38.966Z,64.90
2023-09-08T01:26:22.438Z,64.80
2023-09-08T01:27:59.721Z,64.70
2023-09-08T01:29:34.715Z,64.40
2023-09-08T01:31:07.645Z,64.60
2023-09-08T01:32:43.334Z,65.00
2023-09-08T01:34:17.192Z,64.20
2023-09-08T01:35:51.297Z,64.10
2023-09-08T01:37:25.541Z,64.40
2023-09-08T01:38:58.146Z,64.00
2023-09-08T01:40:32.882Z,64.10
2023-09-08T01:42:07.144Z,64.20
2023-09-08T01:43:41.018Z,64.30
2023-09-08T01:45:13.680Z,63.80
2023-09-08T01:46:47.104Z,64.20
2023-09-08T01:48:20.765Z,64.30
2023-09-08T01:49:53.254Z,64.70
2023-09-08T01:51:26.961Z,64.70
2023-09-08T01:52:59.410Z,65.00
2023-09-08T01:54:32.987Z,64.60
2023-09-08T01:56:05.582Z,65.00
2023-09-08T01:57:40.449Z,64.90
2023-09-08T01:59:12.973Z,64.80
2023-09-08T02:00:51.930Z,64.90
2023-09-08T02:02:24.620Z,65.20
2023-09-08T02:03:58.247Z,64.90
2023-09-08T02:05:31.759Z,64.30
2023-09-08T02:07:06.441Z,65.10
2023-09-08T02:08:40.078Z,64.60
2023-09-08T02:10:13.383Z,64.30
2023-09-08T02:11:46.881Z,64.30
2023-09-08T02:13:20.901Z,64.40
2023-09-08T02:14:54.479Z,64.30
2023-09-08T02:16:27.093Z,64.30
2023-09-08T02:18:00.693Z,64.60
2023-09-08T02:19:33.316Z,64.40
2023-09-08T02:21:06.845Z,64.30
2023-09-08T02:22:39.434Z,64.40
2023-09-08T02:24:13.337Z,64.30
2023-09-08T02:25:45.974Z,64.40
2023-09-08T02:27:19.745Z,64.40
2023-09-08T02:28:57.402Z,64.80
2023-09-08T02:30:31.962Z,64.80
2023-09-08T02:32:07.602Z,64.30
2023-09-08T02:33:40.335Z,65.00
2023-09-08T02:35:14.041Z,64.60
2023-09-08T02:36:48.714Z,64.40
2023-09-08T02:38:22.322Z,64.80
2023-09-08T02:39:55.846Z,64.30
2023-09-08T02:41:28.432Z,64.60
2023-09-08T02:43:02.207Z,65.00
2023-09-08T02:44:36.262Z,65.50
2023-09-08T02:46:10.809Z,65.30
2023-09-08T02:47:44.016Z,64.90
2023-09-08T02:49:17.625Z,65.00
2023-09-08T02:50:50.208Z,65.50
2023-09-08T02:52:23.758Z,66.10
2023-09-08T02:53:56.318Z,65.20
2023-09-08T02:55:30.764Z,65.10
2023-09-08T02:57:05.378Z,65.00
2023-09-08T02:58:38.222Z,65.50
2023-09-08T03:00:15.611Z,65.40
2023-09-08T03:01:48.288Z,66.00
2023-09-08T03:03:22.238Z,65.60
2023-09-08T03:04:55.139Z,65.70
2023-09-08T03:06:28.851Z,65.10
2023-09-08T03:08:01.825Z,65.00
2023-09-08T03:09:36.697Z,64.90
2023-09-08T03:11:09.691Z,65.30
2023-09-08T03:12:43.211Z,65.80
2023-09-08T03:14:15.872Z,64.90
2023-09-08T03:15:50.832Z,64.70
2023-09-08T03:17:23.623Z,65.10
2023-09-08T03:18:57.438Z,65.40
2023-09-08T03:20:30.458Z,65.40
2023-09-08T03:22:04.200Z,65.10
2023-09-08T03:23:38.876Z,65.40
2023-09-08T03:25:11.404Z,65.70
2023-09-08T03:26:44.870Z,65.60
2023-09-08T03:28:17.467Z,65.40
2023-09-08T03:29:51.025Z,65.50
2023-09-08T03:31:26.112Z,65.30
2023-09-08T03:32:58.763Z,65.50
2023-09-08T03:34:33.111Z,65.50
2023-09-08T03:36:05.923Z,65.50
2023-09-08T03:37:39.544Z,65.60
2023-09-08T03:39:12.332Z,65.50
2023-09-08T03:40:45.849Z,65.70
2023-09-08T03:42:18.896Z,65.70
2023-09-08T03:43:52.545Z,65.50
2023-09-08T03:45:25.094Z,66.30
2023-09-08T03:47:02.998Z,65.60
2023-09-08T03:48:36.690Z,65.50
2023-09-08T03:50:12.225Z,65.60
2023-09-08T03:51:45.704Z,66.30
2023-09-08T03:53:19.260Z,66.00
2023-09-08T03:54:51.935Z,66.30
2023-09-08T03:56:25.559Z,66.10
2023-09-08T03:57:59.990Z,66.00
2023-09-08T03:59:33.777Z,66.30
2023-09-08T04:01:07.306Z,66.50
2023-09-08T04:02:41.503Z,65.90
2023-09-08T04:04:15.004Z,65.90
2023-09-08T04:05:48.018Z,66.20
2023-09-08T04:07:21.612Z,66.20
2023-09-08T04:08:55.276Z,65.90
2023-09-08T04:10:29.100Z,66.00
2023-09-08T04:12:01.869Z,65.90
2023-09-08T04:13:37.589Z,66.10
2023-09-08T04:15:11.304Z,66.10
2023-09-08T04:16:44.875Z,66.50
2023-09-08T04:18:19.120Z,66.40
2023-09-08T04:19:52.703Z,65.60
2023-09-08T04:21:26.062Z,66.20
2023-09-08T04:22:59.622Z,66.20
2023-09-08T04:24:37.214Z,66.10
2023-09-08T04:26:10.948Z,66.60
2023-09-08T04:27:43.793Z,66.00
2023-09-08T04:29:17.338Z,66.80
2023-09-08T04:30:51.241Z,66.30
2023-09-08T04:32:23.883Z,66.40
2023-09-08T04:33:59.009Z,66.10
2023-09-08T04:35:33.136Z,66.40
2023-09-08T04:37:06.853Z,66.40
2023-09-08T04:38:42.790Z,66.50
2023-09-08T04:40:17.896Z,65.90
2023-09-08T04:41:50.519Z,66.10
2023-09-08T04:43:24.268Z,66.20
2023-09-08T04:44:57.388Z,66.00
2023-09-08T04:46:30.972Z,66.20
2023-09-08T04:48:04.986Z,66.10
2023-09-08T04:49:39.068Z,66.50
2023-09-08T04:51:12.670Z,65.90
2023-09-08T04:52:46.616Z,65.80
2023-09-08T04:54:21.073Z,66.00
2023-09-08T04:55:55.932Z,66.00
2023-09-08T04:57:28.593Z,66.10
2023-09-08T04:59:05.039Z,66.10
2023-09-08T05:00:41.024Z,65.90
2023-09-08T05:02:14.437Z,66.60
2023-09-08T05:03:48.256Z,66.30
2023-09-08T05:05:23.561Z,66.40
2023-09-08T05:06:56.067Z,66.40
2023-09-08T05:08:30.098Z,65.80
2023-09-08T05:10:03.780Z,66.10
2023-09-08T05:11:39.951Z,65.90
2023-09-08T05:13:24.175Z,65.90
2023-09-08T05:15:07.954Z,65.60
2023-09-08T05:16:47.727Z,66.30
2023-09-08T05:18:26.469Z,66.00
2023-09-08T05:20:00.541Z,65.90
2023-09-08T05:21:35.979Z,66.00
2023-09-08T05:23:10.820Z,66.10
2023-09-08T05:24:44.704Z,65.70
2023-09-08T05:26:17.606Z,64.70
2023-09-08T05:27:51.242Z,65.10
2023-09-08T05:29:24.876Z,65.30
2023-09-08T05:30:57.757Z,65.50
2023-09-08T05:32:31.965Z,65.70
2023-09-08T05:34:05.048Z,65.40
2023-09-08T05:35:39.035Z,65.70
2023-09-08T05:37:14.069Z,66.20
2023-09-08T05:38:46.675Z,66.00
2023-09-08T05:40:22.498Z,65.90
2023-09-08T05:41:55.376Z,66.10
2023-09-08T05:43:34.070Z,66.40
2023-09-08T05:45:09.263Z,66.50
2023-09-08T05:46:41.883Z,66.60
2023-09-08T05:48:15.919Z,66.40
2023-09-08T05:49:48.941Z,66.20
2023-09-08T05:51:23.658Z,65.60
2023-09-08T05:52:59.172Z,66.10
2023-09-08T05:54:32.194Z,65.70
2023-09-08T05:56:06.560Z,66.20
2023-09-08T05:57:39.792Z,66.20
2023-09-08T05:59:13.320Z,65.60
2023-09-08T06:00:46.736Z,65.90
2023-09-08T06:02:20.888Z,66.20
2023-09-08T06:03:55.563Z,65.90
2023-09-08T06:05:29.454Z,66.00
2023-09-08T06:07:02.258Z,65.80
2023-09-08T06:08:38.879Z,66.00
2023-09-08T06:10:11.905Z,66.80
2023-09-08T06:11:45.771Z,66.20
2023-09-08T06:13:18.372Z,66.60
2023-09-08T06:14:51.953Z,66.70
2023-09-08T06:16:24.478Z,66.50
2023-09-08T06:17:58.049Z,66.70
2023-09-08T06:19:32.025Z,67.30
2023-09-08T06:21:04.860Z,67.30
2023-09-08T06:22:38.515Z,67.50
2023-09-08T06:24:13.632Z,66.90
2023-09-08T06:25:46.450Z,67.40
2023-09-08T06:27:20.220Z,67.50
2023-09-08T06:28:53.712Z,67.30
2023-09-08T06:30:26.321Z,66.90
2023-09-08T06:32:01.087Z,67.00
2023-09-08T06:33:34.536Z,67.70
2023-09-08T06:35:07.640Z,67.80
2023-09-08T06:36:41.162Z,67.50
2023-09-08T06:38:14.095Z,67.30
2023-09-08T06:39:49.249Z,67.30
2023-09-08T06:41:21.849Z,67.00
2023-09-08T06:42:58.612Z,67.90
2023-09-08T06:44:43.532Z,67.40
2023-09-08T06:46:16.445Z,67.60
2023-09-08T06:47:51.358Z,67.30
2023-09-08T06:49:24.026Z,67.90
2023-09-08T06:50:58.403Z,67.50
2023-09-08T06:52:32.193Z,68.00
2023-09-08T06:54:06.058Z,68.20
2023-09-08T06:55:50.498Z,68.10
2023-09-08T06:57:23.072Z,68.50
2023-09-08T06:58:58.885Z,68.50
2023-09-08T07:00:31.825Z,68.70
2023-09-08T07:02:07.201Z,68.70
2023-09-08T07:03:39.998Z,68.90
2023-09-08T07:05:16.825Z,69.00
2023-09-08T07:06:51.161Z,69.40
2023-09-08T07:08:25.348Z,69.60
2023-09-08T07:09:57.921Z,69.70
2023-09-08T07:11:32.795Z,69.50
2023-09-08T07:13:05.753Z,69.90
2023-09-08T07:14:39.527Z,69.70
2023-09-08T07:16:13.196Z,69.90
2023-09-08T07:17:47.100Z,69.80
2023-09-08T07:19:19.868Z,70.40
2023-09-08T07:20:53.818Z,70.60
2023-09-08T07:22:27.380Z,70.70
2023-09-08T07:24:01.717Z,71.40
2023-09-08T07:25:34.771Z,70.10
2023-09-08T07:27:10.157Z,71.10
2023-09-08T07:28:42.719Z,70.90
2023-09-08T07:30:20.443Z,70.70
2023-09-08T07:31:54.047Z,71.10
2023-09-08T07:33:27.722Z,71.00
2023-09-08T07:35:00.448Z,70.90
2023-09-08T07:36:34.018Z,71.00
2023-09-08T07:38:07.898Z,71.50
2023-09-08T07:39:41.462Z,72.30
2023-09-08T07:41:14.438Z,72.90
2023-09-08T07:42:49.737Z,72.10
2023-09-08T07:44:23.426Z,72.50
2023-09-08T07:45:56.313Z,72.40
2023-09-08T07:47:31.693Z,72.80
2023-09-08T07:49:04.704Z,72.90
2023-09-08T07:50:39.292Z,73.30
2023-09-08T07:52:11.871Z,73.60
2023-09-08T07:53:45.486Z,73.00
2023-09-08T07:55:18.640Z,74.20
2023-09-08T07:56:52.524Z,74.00
2023-09-08T07:58:26.817Z,73.70
2023-09-08T08:00:00.363Z,74.10
2023-09-08T08:01:33.340Z,74.00
2023-09-08T08:03:08.228Z,74.20
2023-09-08T08:04:40.825Z,74.20
2023-09-08T08:06:14.384Z,73.80
2023-09-08T08:07:47.107Z,74.20
2023-09-08T08:09:20.573Z,74.20
2023-09-08T08:10:53.080Z,74.00
2023-09-08T08:12:26.653Z,74.40
2023-09-08T08:14:02.099Z,74.30
2023-09-08T08:15:39.065Z,74.40
2023-09-08T08:17:12.896Z,74.60
2023-09-08T08:18:46.965Z,73.90
2023-09-08T08:20:20.513Z,74.00
2023-09-08T08:21:54.097Z,73.70
2023-09-08T08:23:27.042Z,74.00
2023-09-08T08:25:00.603Z,73.50
2023-09-08T08:26:34.197Z,73.30
2023-09-08T08:28:07.118Z,73.50
2023-09-08T08:29:42.391Z,73.20
2023-09-08T08:31:14.961Z,72.70
2023-09-08T08:32:48.780Z,72.70
2023-09-08T08:34:21.390Z,72.30
2023-09-08T08:35:56.355Z,72.20
2023-09-08T08:37:29.001Z,72.40
2023-09-08T08:39:02.673Z,71.90
2023-09-08T08:40:39.556Z,70.20
2023-09-08T08:42:14.610Z,70.40
2023-09-08T08:43:48.735Z,70.20
2023-09-08T08:45:26.863Z,70.50
2023-09-08T08:47:02.301Z,70.30
2023-09-08T08:48:37.722Z,70.20
2023-09-08T08:50:12.220Z,69.70
2023-09-08T08:51:47.767Z,69.00
2023-09-08T08:53:23.782Z,68.90
2023-09-08T08:54:57.493Z,68.80
2023-09-08T08:56:31.263Z,67.70
2023-09-08T08:58:07.015Z,67.20
2023-09-08T08:59:42.362Z,67.70
2023-09-08T09:01:20.016Z,65.60
2023-09-08T09:03:07.190Z,64.40
2023-09-08T09:04:47.195Z,63.80
2023-09-08T09:06:20.932Z,64.70
2023-09-08T09:07:56.409Z,64.50
2023-09-08T09:09:31.245Z,64.10
2023-09-08T09:11:04.907Z,63.70
2023-09-08T09:12:39.660Z,63.90
2023-09-08T09:14:12.906Z,63.70
2023-09-08T09:15:47.548Z,62.60
2023-09-08T09:17:22.515Z,62.60
2023-09-08T09:18:57.477Z,62.30
2023-09-08T09:20:31.221Z,60.90
2023-09-08T09:22:04.326Z,59.40
2023-09-08T09:23:37.835Z,59.30
2023-09-08T09:25:11.643Z,59.00
2023-09-08T09:26:45.936Z,58.30
2023-09-08T09:28:19.426Z,57.40
2023-09-08T09:29:52.486Z,56.70
2023-09-08T09:31:26.828Z,56.00
2023-09-08T09:33:06.270Z,56.20
2023-09-08T09:34:51.540Z,55.30
2023-09-08T09:36:24.202Z,54.80
2023-09-08T09:37:58.058Z,55.50
2023-09-08T09:39:31.866Z,54.90
2023-09-08T09:41:04.558Z,53.90
2023-09-08T09:42:42.014Z,53.30
2023-09-08T09:44:15.207Z,52.30
2023-09-08T09:45:49.073Z,52.70
2023-09-08T09:47:23.596Z,52.30
2023-09-08T09:48:57.695Z,52.10
2023-09-08T09:50:34.116Z,52.00
2023-09-08T09:52:07.113Z,51.90
2023-09-08T09:53:45.055Z,51.20
2023-09-08T09:55:19.566Z,50.90
2023-09-08T09:56:54.054Z,50.50
2023-09-08T09:58:30.455Z,50.30
2023-09-08T10:00:06.945Z,51.50
2023-09-08T10:01:42.186Z,50.80
2023-09-08T10:03:15.871Z,50.20
2023-09-08T10:04:52.346Z,49.20
2023-09-08T10:06:27.411Z,48.30
2023-09-08T10:08:02.116Z,48.90
2023-09-08T10:09:38.475Z,48.40
2023-09-08T10:11:16.007Z,47.70
2023-09-08T10:12:59.483Z,47.10
2023-09-08T10:14:36.524Z,46.00
2023-09-08T10:16:11.263Z,47.20
2023-09-08T10:17:49.504Z,47.90
2023-09-08T10:19:26.135Z,47.10
2023-09-08T10:21:06.432Z,46.90
2023-09-08T10:22:43.917Z,46.90
2023-09-08T10:24:25.873Z,47.40
2023-09-08T10:26:05.350Z,46.60
2023-09-08T10:27:40.401Z,46.40
2023-09-08T10:29:14.819Z,46.40
2023-09-08T10:30:48.880Z,46.00
2023-09-08T10:32:23.688Z,46.30
2023-09-08T10:33:59.019Z,45.90
2023-09-08T10:35:32.111Z,45.30
2023-09-08T10:37:22.059Z,45.40
2023-09-08T10:38:57.625Z,43.60
2023-09-08T10:40:34.635Z,44.40
2023-09-08T10:42:29.697Z,44.00
2023-09-08T10:44:09.702Z,43.30
2023-09-08T10:45:43.419Z,43.90
2023-09-08T10:47:19.280Z,43.40
2023-09-08T10:48:55.475Z,43.20
2023-09-08T10:50:34.586Z,43.20
2023-09-08T10:52:13.844Z,42.70
2023-09-08T10:53:50.648Z,42.90
2023-09-08T10:55:37.810Z,42.20
2023-09-08T10:57:16.887Z,41.30
2023-09-08T10:58:53.863Z,41.70
2023-09-08T11:00:26.562Z,41.70
2023-09-08T11:02:00.084Z,41.40
2023-09-08T11:03:49.280Z,41.40
2023-09-08T11:05:22.448Z,40.30
2023-09-08T11:06:59.048Z,40.50
2023-09-08T11:08:35.064Z,40.50
2023-09-08T11:10:10.712Z,40.40
2023-09-08T11:11:45.104Z,40.40
2023-09-08T11:13:17.788Z,40.50
2023-09-08T11:14:51.778Z,39.50
2023-09-08T11:16:30.762Z,39.80
2023-09-08T11:18:08.272Z,39.60
2023-09-08T11:19:49.635Z,39.10
2023-09-08T11:21:22.634Z,38.10
2023-09-08T11:22:56.282Z,38.70
2023-09-08T11:24:32.044Z,38.50
2023-09-08T11:26:07.133Z,38.10
2023-09-08T11:27:40.800Z,38.30
2023-09-08T11:29:14.788Z,37.90
2023-09-08T11:30:50.008Z,37.90
2023-09-08T11:32:23.395Z,38.10
2023-09-08T11:33:58.401Z,37.80
2023-09-08T11:35:33.994Z,37.70
2023-09-08T11:37:11.509Z,36.90
2023-09-08T11:38:45.848Z,37.10
2023-09-08T11:40:22.493Z,37.10
2023-09-08T11:41:55.120Z,36.70
2023-09-08T11:43:28.950Z,36.50
2023-09-08T11:45:04.838Z,36.90
2023-09-08T11:46:39.915Z,36.40
2023-09-08T11:48:12.909Z,36.60
2023-09-08T11:49:47.271Z,36.10
2023-09-08T11:51:23.996Z,36.00
2023-09-08T11:52:58.951Z,36.90
2023-09-08T11:54:32.784Z,36.10
2023-09-08T11:56:08.077Z,35.90
2023-09-08T11:57:41.799Z,35.40
2023-09-08T11:59:16.337Z,35.50
2023-09-08T12:00:50.721Z,35.40
2023-09-08T12:02:23.312Z,35.40
2023-09-08T12:03:59.155Z,35.70
2023-09-08T12:05:31.858Z,36.00
2023-09-08T12:07:05.927Z,35.50
2023-09-08T12:08:38.541Z,35.50
2023-09-08T12:10:15.022Z,35.70
2023-09-08T12:11:49.038Z,35.70
2023-09-08T12:13:24.926Z,34.90
2023-09-08T12:14:57.528Z,35.50
2023-09-08T12:16:31.597Z,35.20
2023-09-08T12:18:07.339Z,35.80
2023-09-08T12:19:41.005Z,35.70
2023-09-08T12:21:13.628Z,35.10
2023-09-08T12:22:52.024Z,34.90
2023-09-08T12:24:50.685Z,33.80
2023-09-08T12:26:26.903Z,33.70
2023-09-08T12:28:02.837Z,34.90
2023-09-08T12:29:35.720Z,34.60
2023-09-08T12:31:11.267Z,34.20
2023-09-08T12:32:46.555Z,34.10
2023-09-08T12:34:20.527Z,34.00
2023-09-08T12:35:54.921Z,34.10
2023-09-08T12:37:28.776Z,33.90
2023-09-08T12:39:06.851Z,33.80
2023-09-08T12:40:41.173Z,33.70
2023-09-08T12:42:13.731Z,33.90
2023-09-08T12:43:48.635Z,34.00
2023-09-08T12:45:24.602Z,34.00
2023-09-08T12:46:58.306Z,33.90
2023-09-08T12:48:30.902Z,33.40
2023-09-08T12:50:04.568Z,33.60
2023-09-08T12:51:38.316Z,33.30
2023-09-08T12:53:11.840Z,33.30
2023-09-08T12:54:44.289Z,33.20
2023-09-08T12:56:19.237Z,33.20
2023-09-08T12:57:55.650Z,33.30
2023-09-08T12:59:29.517Z,33.10
2023-09-08T13:01:03.287Z,33.20
2023-09-08T13:02:54.895Z,33.30
2023-09-08T13:04:27.505Z,33.00
2023-09-08T13:06:00.992Z,33.20
2023-09-08T13:07:33.632Z,33.50
2023-09-08T13:09:08.365Z,33.50
2023-09-08T13:10:42.019Z,32.90
2023-09-08T13:12:14.933Z,32.80
2023-09-08T13:13:48.470Z,33.40
2023-09-08T13:15:25.072Z,32.40
2023-09-08T13:16:57.770Z,32.70
2023-09-08T13:18:36.810Z,32.60
2023-09-08T13:20:13.250Z,32.60
2023-09-08T13:21:46.830Z,33.30
2023-09-08T13:23:19.578Z,32.80
2023-09-08T13:24:53.052Z,31.80
2023-09-08T13:26:25.652Z,31.50
2023-09-08T13:27:59.463Z,31.80
2023-09-08T13:29:32.042Z,32.00
2023-09-08T13:31:06.879Z,31.80
2023-09-08T13:32:40.004Z,31.70
2023-09-08T13:34:13.680Z,32.00
2023-09-08T13:35:46.307Z,31.70
2023-09-08T13:37:19.770Z,31.80
2023-09-08T13:38:52.321Z,32.00
2023-09-08T13:40:25.960Z,31.70
2023-09-08T13:42:03.839Z,31.20
2023-09-08T13:43:37.105Z,31.70
2023-09-08T13:45:11.947Z,31.20
2023-09-08T13:46:47.185Z,30.90
2023-09-08T13:48:21.582Z,30.70
2023-09-08T13:49:57.693Z,30.70
2023-09-08T13:51:34.382Z,31.30
2023-09-08T13:53:09.697Z,31.30
2023-09-08T13:54:45.967Z,31.50
2023-09-08T13:56:20.735Z,32.00
2023-09-08T13:57:56.060Z,31.90
2023-09-08T13:59:35.881Z,31.30
2023-09-08T14:01:12.165Z,31.00
2023-09-08T14:02:51.075Z,30.70
2023-09-08T14:04:25.758Z,30.10
2023-09-08T14:06:02.460Z,30.30
2023-09-08T14:07:43.456Z,31.20
2023-09-08T14:09:43.050Z,30.60
2023-09-08T14:11:16.244Z,30.70
2023-09-08T14:12:58.173Z,30.80
2023-09-08T14:14:31.778Z,31.10
2023-09-08T14:16:04.800Z,30.80
2023-09-08T14:17:38.372Z,30.60
2023-09-08T14:19:12.215Z,30.80
2023-09-08T14:20:46.148Z,30.20
2023-09-08T14:22:18.658Z,30.40
2023-09-08T14:23:52.186Z,29.90
2023-09-08T14:25:24.647Z,30.00
2023-09-08T14:26:58.210Z,30.00
2023-09-08T14:28:33.163Z,29.90
2023-09-08T14:30:07.359Z,30.30
2023-09-08T14:31:40.749Z,31.10
2023-09-08T14:33:13.295Z,31.10
2023-09-08T14:34:48.212Z,31.00
2023-09-08T14:36:21.214Z,31.20
2023-09-08T14:37:54.710Z,30.80
2023-09-08T14:39:28.431Z,30.60
2023-09-08T14:41:03.247Z,30.70
2023-09-08T14:42:36.857Z,30.40
2023-09-08T14:44:09.620Z,31.00
2023-09-08T14:45:43.410Z,31.60
2023-09-08T14:47:15.871Z,31.00
2023-09-08T14:48:49.630Z,30.80
2023-09-08T14:50:23.686Z,31.00
2023-09-08T14:51:57.914Z,31.00
2023-09-08T14:53:32.285Z,31.30
2023-09-08T14:55:06.082Z,31.20
2023-09-08T14:56:38.543Z,31.60
2023-09-08T14:58:13.442Z,31.10
2023-09-08T14:59:45.930Z,31.40
2023-09-08T15:01:20.057Z,31.30
2023-09-08T15:02:52.765Z,31.10
2023-09-08T15:04:26.709Z,31.10
2023-09-08T15:06:00.961Z,31.50
2023-09-08T15:07:34.413Z,31.40
2023-09-08T15:09:08.746Z,31.70
2023-09-08T15:10:45.234Z,31.80
2023-09-08T15:12:19.792Z,31.60
2023-09-08T15:13:53.664Z,31.10
2023-09-08T15:15:26.438Z,31.80
2023-09-08T15:17:04.165Z,31.50
2023-09-08T15:18:37.802Z,31.50
2023-09-08T15:20:11.326Z,30.50
2023-09-08T15:21:46.311Z,30.80
2023-09-08T15:23:18.950Z,30.80
2023-09-08T15:24:53.772Z,31.10
2023-09-08T15:26:26.687Z,30.50
2023-09-08T15:28:00.252Z,30.50
2023-09-08T15:29:32.852Z,30.80
2023-09-08T15:31:09.329Z,29.80
2023-09-08T15:32:42.243Z,30.00
2023-09-08T15:34:18.649Z,30.00
2023-09-08T15:35:56.459Z,30.00
2023-09-08T15:37:30.396Z,30.60
2023-09-08T15:39:06.761Z,30.60
2023-09-08T15:40:39.850Z,30.80
2023-09-08T15:42:15.507Z,31.40
2023-09-08T15:43:53.169Z,31.50
2023-09-08T15:45:27.219Z,31.60
2023-09-08T15:46:59.820Z,32.20
2023-09-08T15:48:35.118Z,32.40
2023-09-08T15:50:13.055Z,32.20
2023-09-08T15:51:51.552Z,33.40
2023-09-08T15:53:29.238Z,33.20
2023-09-08T15:55:12.381Z,33.40
2023-09-08T15:56:47.286Z,33.90
2023-09-08T15:58:25.564Z,35.00
2023-09-08T15:59:59.025Z,35.90
2023-09-08T16:01:34.668Z,35.90
2023-09-08T16:03:08.561Z,36.40
2023-09-08T16:04:44.264Z,36.80
2023-09-08T16:06:19.872Z,37.50
2023-09-08T16:07:53.623Z,37.70
2023-09-08T16:09:28.201Z,37.90
2023-09-08T16:11:03.309Z,38.20
2023-09-08T16:12:36.773Z,38.60
2023-09-08T16:14:09.592Z,38.80
2023-09-08T16:15:44.362Z,38.90
2023-09-08T16:17:18.090Z,39.10
2023-09-08T16:18:50.592Z,39.10
2023-09-08T16:20:24.117Z,39.50
2023-09-08T16:21:57.683Z,40.00
2023-09-08T16:23:36.353Z,40.20
2023-09-08T16:25:10.772Z,41.10
2023-09-08T16:26:44.399Z,41.00
2023-09-08T16:28:17.950Z,41.50
2023-09-08T16:29:51.611Z,41.50
2023-09-08T16:31:24.256Z,41.40
2023-09-08T16:32:58.167Z,41.90
2023-09-08T16:34:31.703Z,42.20
2023-09-08T16:36:10.586Z,42.20
2023-09-08T16:37:47.091Z,42.50
2023-09-08T16:39:19.969Z,43.00
2023-09-08T16:40:54.897Z,43.10
2023-09-08T16:42:27.533Z,43.60
2023-09-08T16:44:01.322Z,43.90
2023-09-08T16:45:34.850Z,44.10
2023-09-08T16:47:08.205Z,44.20
2023-09-08T16:48:41.815Z,44.60
2023-09-08T16:50:18.575Z,45.00
2023-09-08T16:51:54.849Z,45.20
2023-09-08T16:53:28.070Z,45.40
2023-09-08T16:55:01.752Z,45.50
2023-09-08T16:56:37.002Z,45.80
2023-09-08T16:58:09.872Z,46.30
2023-09-08T16:59:43.618Z,46.60
2023-09-08T17:01:17.302Z,46.70
2023-09-08T17:02:49.863Z,47.10
2023-09-08T17:04:23.693Z,47.30
2023-09-08T17:05:57.364Z,47.60
2023-09-08T17:07:30.029Z,47.80
2023-09-08T17:09:04.246Z,48.20
2023-09-08T17:10:36.951Z,48.40
2023-09-08T17:12:12.022Z,48.50
2023-09-08T17:13:48.924Z,49.00
2023-09-08T17:15:21.869Z,48.80
2023-09-08T17:16:55.475Z,49.30
2023-09-08T17:18:31.126Z,49.10
2023-09-08T17:20:06.189Z,49.60
2023-09-08T17:21:38.724Z,50.20
2023-09-08T17:23:12.313Z,50.20
2023-09-08T17:24:44.974Z,50.30
2023-09-08T17:26:18.734Z,50.30
2023-09-08T17:27:52.782Z,50.50
2023-09-08T17:29:26.525Z,50.70
2023-09-08T17:30:58.995Z,50.80
2023-09-08T17:32:32.703Z,51.10
2023-09-08T17:34:08.604Z,51.20
2023-09-08T17:35:42.441Z,51.80
2023-09-08T17:37:14.957Z,51.60
2023-09-08T17:38:49.016Z,51.50
2023-09-08T17:40:23.230Z,51.90
2023-09-08T17:41:56.082Z,52.00
2023-09-08T17:43:31.249Z,52.20
2023-09-08T17:45:05.142Z,52.30
2023-09-08T17:46:39.122Z,52.40
2023-09-08T17:48:12.105Z,52.30
2023-09-08T17:49:45.742Z,52.60
2023-09-08T17:51:18.220Z,52.70
2023-09-08T17:52:51.646Z,52.70
2023-09-08T17:54:24.259Z,52.70
2023-09-08T17:55:57.732Z,53.10
2023-09-08T17:57:30.320Z,53.10
2023-09-08T17:59:07.341Z,53.30
2023-09-08T18:00:41.694Z,53.50
2023-09-08T18:02:14.623Z,53.50
2023-09-08T18:03:49.670Z,53.60
2023-09-08T18:05:22.201Z,53.70
2023-09-08T18:06:55.797Z,53.80
2023-09-08T18:08:28.327Z,53.90
2023-09-08T18:10:01.915Z,54.00
2023-09-08T18:11:34.830Z,54.30
2023-09-08T18:13:09.826Z,54.20
2023-09-08T18:14:43.950Z,54.40
2023-09-08T18:16:17.629Z,54.60
2023-09-08T18:17:50.054Z,54.40
2023-09-08T18:19:23.653Z,54.40
2023-09-08T18:20:56.781Z,54.70
2023-09-08T18:22:30.420Z,54.80
2023-09-08T18:24:04.271Z,54.60
2023-09-08T18:25:37.766Z,54.90
2023-09-08T18:27:10.362Z,54.80
2023-09-08T18:28:43.998Z,55.00
2023-09-08T18:30:18.259Z,55.00
2023-09-08T18:31:51.871Z,55.00
2023-09-08T18:33:25.241Z,55.60
2023-09-08T18:34:58.923Z,55.30
2023-09-08T18:36:31.440Z,55.30
2023-09-08T18:38:07.498Z,55.40
2023-09-08T18:39:41.496Z,55.50
2023-09-08T18:41:14.995Z,55.50
2023-09-08T18:42:48.626Z,55.60
2023-09-08T18:44:22.498Z,55.50
2023-09-08T18:45:56.272Z,55.80
2023-09-08T18:47:29.741Z,56.10
2023-09-08T18:49:02.551Z,55.90
2023-09-08T18:50:36.226Z,56.00
2023-09-08T18:52:10.981Z,56.10
2023-09-08T18:53:43.497Z,56.10
2023-09-08T18:55:17.487Z,56.30
2023-09-08T18:56:50.115Z,56.40
2023-09-08T18:58:25.291Z,56.50
2023-09-08T18:59:58.041Z,56.60
2023-09-08T19:01:33.258Z,56.40
2023-09-08T19:03:06.242Z,56.40
2023-09-08T19:04:40.068Z,56.60
2023-09-08T19:06:12.719Z,56.50
2023-09-08T19:07:50.835Z,56.50
2023-09-08T19:09:23.604Z,56.80
2023-09-08T19:10:57.092Z,57.30
2023-09-08T19:12:29.670Z,56.80
2023-09-08T19:14:03.483Z,57.00
2023-09-08T19:15:36.134Z,56.80
2023-09-08T19:17:12.350Z,57.10
2023-09-08T19:18:46.061Z,57.10
2023-09-08T19:20:20.018Z,57.00
2023-09-08T19:21:54.800Z,57.20
2023-09-08T19:23:27.310Z,57.00
2023-09-08T19:25:00.875Z,57.10
2023-09-08T19:26:33.462Z,57.20
2023-09-08T19:28:08.248Z,57.40
2023-09-08T19:29:40.575Z,57.40
2023-09-08T19:31:14.166Z,57.60
2023-09-08T19:32:49.167Z,57.00
2023-09-08T19:34:23.051Z,57.10
2023-09-08T19:35:56.657Z,56.90
2023-09-08T19:37:30.225Z,56.80
2023-09-08T19:39:04.849Z,57.40
2023-09-08T19:40:40.112Z,57.40
2023-09-08T19:42:17.063Z,57.40
2023-09-08T19:43:49.653Z,57.20
2023-09-08T19:45:25.141Z,57.50
2023-09-08T19:46:58.189Z,57.50
2023-09-08T19:48:35.476Z,57.30
2023-09-08T19:50:10.198Z,57.90
2023-09-08T19:51:43.591Z,58.00
2023-09-08T19:53:17.055Z,58.30
2023-09-08T19:54:50.876Z,57.50
2023-09-08T19:56:23.906Z,57.70
2023-09-08T19:57:58.819Z,57.60
2023-09-08T19:59:31.404Z,57.70
2023-09-08T20:01:14.158Z,58.20
2023-09-08T20:02:46.918Z,58.10
2023-09-08T20:04:21.975Z,57.90
2023-09-08T20:05:54.973Z,57.90
2023-09-08T20:07:28.511Z,58.20
2023-09-08T20:09:01.165Z,57.70
2023-09-08T20:10:34.839Z,58.20
2023-09-08T20:12:08.029Z,58.20
2023-09-08T20:13:42.108Z,58.50
2023-09-08T20:15:15.129Z,58.60
2023-09-08T20:16:48.867Z,58.30
2023-09-08T20:18:22.017Z,58.30